Quick Links (Output Below):   Max & Min Temps   /   Climate Reports   /   Zone Forecasts
River Forecasts   /   Forestry Forecasts   /   Aviation Forecasts   /   Radars   /   Features

Terminal Aerodrome Forecast (Arkadelphia)

Pick a Site:
Arkadelphia | El Dorado | Fayetteville | Fort Smith | Harrison | Highfill | Hot Springs | Jonesboro
Little Rock | Monticello | Mountain Home | Pine Bluff | Texarkana
 Forecast 

KADF 241720Z 2418/2518 08006KT P6SM SCT010 SCT040
      TEMPO 2418/2420 BKN010
     FM250000 VRB04KT P6SM SKC
     FM251500 18005KT P6SM SCT040=


 Latest METARs (Observations) 
How to Decode METARs
22Z KADF 242156Z AUTO 00000KT 10SM BKN027 28/23 A3002 RMK AO2
         T02830227 BKN V SCT SLP179
         
21Z KADF 242056Z AUTO 00000KT 8SM BKN027 BKN090 28/22 A3004 RMK AO2
         58014 T02830222 SLP183
         
20Z KADF 241956Z AUTO VRB03KT 6SM HZ BKN024 27/23 A3005 RMK AO2
         T02720233 BKN V SCT SLP189
         
19Z KADF 241856Z AUTO 04005KT 5SM HZ SCT018 27/23 A3007 RMK AO2
         T02660227 SLP195
         
18Z KADF 241756Z AUTO VRB03KT 7SM OVC014 26/23 A3008 RMK AO2 58005
         T02550227 10255 20205 SLP197
         
17Z KADF 241656Z AUTO 07005KT 8SM OVC012 25/23 A3010 RMK AO2 T02500227
         SLP204
         
16Z KADF 241556Z AUTO 04004KT 7SM BKN010 OVC014 24/22 A3010 RMK AO2
         T02380222 CIG 009V012 SLP204
         
15Z KADF 241456Z AUTO 02005KT 9SM BKN008 BKN011 23/22 A3010 RMK AO2
         51009 T02330216 BKN V OVC SLP204
         
14Z KADF 241356Z AUTO 02005KT 8SM OVC006 22/22 A3009 RMK AO2 T02160216
         SLP202
         
13Z KADF 241256Z AUTO 35004KT 3SM BR OVC006 21/21 A3009 RMK AO2
         T02110211 CIG 002V007 SLP201
         
***** Today's Observations (Above) *****


Back to Main Page
http://www.srh.noaa.gov/lzk/qfcst.php

USA.gov is the U.S. government's official web portal to all federal, state and local government web resources and services.